Time;durP1;ratioP1;P1;durP2;ratioP2;P2;SDS_P1;SDS_P2;PMS_P1;PMS_P2;Temp;Humidity;BMP_temperature;BMP_pressure;BME280_temperature;BME280_humidity;BME280_pressure;Samples;Min_cycle;Max_cycle;Signal;HPM_P1;HPM_P2
2022/04/10 00:01:35;;;;;;;89.88;72.85;;;24.40;96.10;;;;;;4222884;28;20055;-73
2022/04/10 00:03:40;;;;;;;86.90;71.70;;;24.50;96.10;;;;;;4222176;28;20048;-74
2022/04/10 00:05:45;;;;;;;86.82;72.25;;;24.50;96.00;;;;;;4218249;28;20052;-73
2022/04/10 00:07:50;;;;;;;84.40;71.72;;;24.50;95.90;;;;;;4220590;28;20044;-73
2022/04/10 00:09:56;;;;;;;87.15;71.40;;;24.60;95.80;;;;;;4214311;28;20055;-73
2022/04/10 00:12:01;;;;;;;86.93;71.85;;;24.60;95.40;;;;;;4213440;28;20497;-73
2022/04/10 00:14:09;;;;;;;92.93;72.15;;;24.70;95.30;;;;;;4211055;28;20131;-75
2022/04/10 00:16:13;;;;;;;93.15;75.97;;;24.70;94.60;;;;;;4211677;28;20032;-73
2022/04/10 00:18:18;;;;;;;94.82;76.88;;;24.70;94.60;;;;;;4213950;28;20036;-73
2022/04/10 00:20:26;;;;;;;94.38;75.90;;;24.80;94.50;;;;;;4214063;28;20040;-73
2022/04/10 00:22:30;;;;;;;94.43;72.60;;;24.80;94.30;;;;;;4218279;28;20079;-73
2022/04/10 00:24:35;;;;;;;92.78;73.93;;;24.90;94.10;;;;;;4211267;28;20036;-73
2022/04/10 00:26:39;;;;;;;94.57;73.05;;;24.90;93.90;;;;;;4221237;28;20048;-75
2022/04/10 00:28:44;;;;;;;87.13;70.60;;;24.90;93.70;;;;;;4224905;28;20450;-71
2022/04/10 00:30:49;;;;;;;89.35;74.03;;;25.00;93.90;;;;;;4215671;28;20066;-72
2022/04/10 00:32:54;;;;;;;90.30;73.85;;;25.00;93.60;;;;;;4209633;28;20426;-72
2022/04/10 00:34:58;;;;;;;91.80;74.88;;;25.10;93.50;;;;;;4214270;28;20055;-72
2022/04/10 00:37:04;;;;;;;98.82;78.18;;;25.10;93.70;;;;;;4213785;28;20052;-72
2022/04/10 00:39:11;;;;;;;102.45;79.88;;;25.20;93.80;;;;;;4210806;28;20044;-72
2022/04/10 00:41:17;;;;;;;103.97;79.72;;;25.20;94.00;;;;;;4211153;28;20104;-72
2022/04/10 00:43:28;;;;;;;91.22;76.22;;;25.20;94.10;;;;;;4218417;28;20044;-71
2022/04/10 00:45:36;;;;;;;93.53;76.63;;;25.30;94.20;;;;;;4230269;28;20415;-73
2022/04/10 00:47:44;;;;;;;89.47;73.38;;;25.30;94.10;;;;;;4212948;28;20857;-71
2022/04/10 00:49:49;;;;;;;81.18;67.90;;;25.40;93.90;;;;;;4215785;28;20032;-72
2022/04/10 00:51:59;;;;;;;79.18;65.70;;;25.40;93.50;;;;;;4200223;28;20044;-72
2022/04/10 00:54:03;;;;;;;76.40;64.85;;;25.40;93.20;;;;;;4213292;28;20055;-70
2022/04/10 00:56:08;;;;;;;76.38;63.40;;;25.50;93.20;;;;;;4212685;28;20040;-71
2022/04/10 00:58:15;;;;;;;72.80;59.70;;;25.50;93.10;;;;;;4209641;28;20055;-71
2022/04/10 01:00:20;;;;;;;75.45;61.63;;;25.60;93.00;;;;;;4199027;28;20048;-71
2022/04/10 01:02:25;;;;;;;85.65;62.05;;;25.60;92.60;;;;;;4199995;28;20040;-72
2022/04/10 01:04:32;;;;;;;74.53;61.05;;;25.70;92.60;;;;;;4199251;28;20049;-71
2022/04/10 01:06:37;;;;;;;78.65;61.22;;;25.70;92.50;;;;;;4198553;28;20056;-73
2022/04/10 01:08:42;;;;;;;85.32;61.92;;;25.70;92.50;;;;;;4200995;28;20048;-70
2022/04/10 01:10:52;;;;;;;77.97;61.63;;;25.80;92.60;;;;;;4210417;28;20044;-72
2022/04/10 01:12:57;;;;;;;81.05;61.17;;;25.80;92.70;;;;;;4212749;28;20039;-71
2022/04/10 01:15:04;;;;;;;142.52;64.10;;;25.90;92.70;;;;;;4190343;28;20459;-73
2022/04/10 01:17:15;;;;;;;94.68;62.13;;;25.90;92.80;;;;;;4211525;28;20131;-70
2022/04/10 01:19:21;;;;;;;92.00;61.80;;;26.00;92.80;;;;;;4203420;28;20764;-70
2022/04/10 01:21:33;;;;;;;91.10;62.80;;;26.00;92.80;;;;;;4211870;28;20053;-72
2022/04/10 01:23:43;;;;;;;83.63;60.17;;;26.10;92.70;;;;;;4166271;28;20139;-72
2022/04/10 01:25:47;;;;;;;81.97;60.75;;;26.20;92.60;;;;;;4211797;28;20051;-71
2022/04/10 01:27:53;;;;;;;74.95;57.97;;;26.20;92.60;;;;;;4211907;28;20123;-73
2022/04/10 01:30:05;;;;;;;77.90;58.42;;;26.30;92.40;;;;;;4230726;27;20043;-72
2022/04/10 01:32:10;;;;;;;70.70;58.47;;;26.40;92.20;;;;;;4198068;28;20114;-71
2022/04/10 01:34:17;;;;;;;80.78;59.33;;;26.40;92.00;;;;;;4212523;28;20075;-71
2022/04/10 01:36:24;;;;;;;77.22;58.80;;;26.40;91.80;;;;;;4213430;28;20040;-71
2022/04/10 01:38:29;;;;;;;73.78;56.38;;;26.50;91.70;;;;;;4232403;28;20051;-71
2022/04/10 01:40:34;;;;;;;75.70;57.05;;;26.50;91.60;;;;;;4217326;28;20036;-71
2022/04/10 01:42:41;;;;;;;66.70;52.50;;;26.60;91.50;;;;;;4214234;28;20075;-71
2022/04/10 01:44:46;;;;;;;63.40;51.33;;;26.60;91.10;;;;;;4231004;27;20063;-70
2022/04/10 01:46:53;;;;;;;65.53;47.67;;;26.60;91.10;;;;;;4224274;28;20040;-70
2022/04/10 01:48:59;;;;;;;57.45;46.60;;;26.70;90.80;;;;;;4225221;28;20068;-70
2022/04/10 01:51:04;;;;;;;54.33;44.08;;;26.70;90.70;;;;;;4216099;28;20056;-73
2022/04/10 01:53:09;;;;;;;52.75;44.58;;;26.80;90.70;;;;;;4213420;28;20098;-71
2022/04/10 01:55:18;;;;;;;54.42;42.45;;;26.80;90.40;;;;;;4228533;28;20169;-71
2022/04/10 01:57:24;;;;;;;54.03;43.22;;;26.90;90.40;;;;;;4216418;28;20035;-71
2022/04/10 01:59:29;;;;;;;51.63;41.90;;;26.90;90.30;;;;;;4212050;28;20049;-70
2022/04/10 02:01:36;;;;;;;55.35;41.95;;;26.90;89.90;;;;;;4231622;28;20094;-71
2022/04/10 02:03:40;;;;;;;49.50;42.67;;;26.90;89.50;;;;;;4232814;28;20065;-71
2022/04/10 02:05:45;;;;;;;55.55;42.72;;;27.00;89.20;;;;;;4216332;28;20052;-70
2022/04/10 02:07:52;;;;;;;54.17;41.40;;;27.00;88.90;;;;;;4216241;28;20051;-71
2022/04/10 02:09:57;;;;;;;51.25;40.47;;;27.10;88.20;;;;;;4216273;28;20123;-71
2022/04/10 02:12:04;;;;;;;52.08;41.65;;;27.10;88.50;;;;;;4215478;28;20130;-71
2022/04/10 02:14:13;;;;;;;56.78;41.63;;;27.10;88.70;;;;;;4199301;28;20437;-71
2022/04/10 02:16:19;;;;;;;49.30;39.55;;;27.20;88.90;;;;;;4212549;28;20055;-70
2022/04/10 02:18:24;;;;;;;55.53;40.30;;;27.30;88.10;;;;;;4212368;28;20100;-71
2022/04/10 02:20:34;;;;;;;44.65;38.67;;;27.30;88.10;;;;;;4197462;28;20040;-72
2022/04/10 02:22:39;;;;;;;52.90;40.50;;;27.30;88.10;;;;;;4215980;28;20123;-72
2022/04/10 02:24:44;;;;;;;49.90;39.25;;;27.40;88.20;;;;;;4212266;28;20047;-71
2022/04/10 02:26:52;;;;;;;48.78;36.28;;;27.40;87.80;;;;;;4198682;28;20048;-70
2022/04/10 02:28:59;;;;;;;46.22;37.65;;;27.50;88.70;;;;;;4229687;28;20047;-72
2022/04/10 02:31:07;;;;;;;49.05;40.38;;;27.50;87.80;;;;;;4227545;28;20040;-71
2022/04/10 02:33:24;;;;;;;48.38;38.17;;;27.60;87.40;;;;;;4215448;28;20040;-70
2022/04/10 02:35:29;;;;;;;51.38;39.22;;;27.60;87.20;;;;;;4197935;28;20572;-70
2022/04/10 02:37:34;;;;;;;47.58;38.22;;;27.70;87.30;;;;;;4212041;28;20040;-71
2022/04/10 02:39:41;;;;;;;46.00;38.10;;;27.70;86.70;;;;;;4214184;28;20032;-71
2022/04/10 02:41:46;;;;;;;45.88;38.90;;;27.70;86.40;;;;;;4214804;28;20040;-70
2022/04/10 02:43:50;;;;;;;54.67;38.95;;;27.80;86.30;;;;;;4196877;28;20056;-70
2022/04/10 02:46:00;;;;;;;46.60;39.03;;;27.80;85.40;;;;;;4211319;28;20610;-69
2022/04/10 02:48:05;;;;;;;44.92;39.95;;;27.90;85.50;;;;;;4210393;28;20074;-69
2022/04/10 02:50:13;;;;;;;48.60;39.10;;;27.90;85.60;;;;;;4228331;28;20039;-69
2022/04/10 02:52:22;;;;;;;50.42;38.88;;;27.90;85.50;;;;;;4178596;28;20073;-71
2022/04/10 02:54:27;;;;;;;47.28;39.08;;;28.00;84.90;;;;;;4214140;28;20067;-71
2022/04/10 02:56:32;;;;;;;50.33;39.10;;;28.10;85.20;;;;;;4213227;28;20465;-70
2022/04/10 02:58:41;;;;;;;46.13;38.00;;;28.10;84.90;;;;;;4212163;28;20044;-73
2022/04/10 03:00:47;;;;;;;47.10;38.08;;;28.10;85.00;;;;;;4215220;28;20055;-71
2022/04/10 03:02:53;;;;;;;47.13;37.28;;;28.20;85.30;;;;;;4213772;28;20070;-72
2022/04/10 03:05:02;;;;;;;46.78;38.42;;;28.20;85.50;;;;;;4212548;28;20079;-72
2022/04/10 03:07:07;;;;;;;45.80;37.47;;;28.30;85.70;;;;;;4213513;28;20044;-70
2022/04/10 03:09:12;;;;;;;47.60;36.75;;;28.30;85.20;;;;;;4213436;28;20040;-72
2022/04/10 03:11:23;;;;;;;47.28;38.60;;;28.30;85.30;;;;;;4213323;28;20044;-72
2022/04/10 03:13:29;;;;;;;46.17;39.67;;;28.40;85.00;;;;;;4214762;28;20040;-71
2022/04/10 03:15:35;;;;;;;46.55;38.17;;;28.40;84.60;;;;;;4196275;28;20438;-70
2022/04/10 03:17:41;;;;;;;45.63;37.40;;;28.50;85.20;;;;;;4214976;28;20073;-71
2022/04/10 03:19:46;;;;;;;49.95;37.33;;;28.50;85.70;;;;;;4214287;28;20067;-71
2022/04/10 03:21:51;;;;;;;44.97;38.95;;;28.60;85.00;;;;;;4216636;28;20093;-70
2022/04/10 03:24:01;;;;;;;48.67;37.05;;;28.60;84.80;;;;;;4216050;28;20044;-70
2022/04/10 03:26:07;;;;;;;48.80;37.78;;;28.70;84.90;;;;;;4216208;28;20048;-70
2022/04/10 03:28:13;;;;;;;48.67;38.17;;;28.70;84.90;;;;;;4214384;28;20090;-70
2022/04/10 03:30:24;;;;;;;49.03;39.10;;;28.80;84.20;;;;;;4214058;28;20131;-69
2022/04/10 03:32:29;;;;;;;51.95;37.63;;;28.80;84.90;;;;;;4214757;28;20066;-69
2022/04/10 03:34:34;;;;;;;42.83;37.88;;;28.90;85.20;;;;;;4213416;28;20547;-70
2022/04/10 03:36:41;;;;;;;44.58;36.85;;;28.90;84.70;;;;;;4215383;28;20061;-69
2022/04/10 03:38:46;;;;;;;47.70;37.67;;;28.90;84.50;;;;;;4215870;28;20075;-71
2022/04/10 03:40:50;;;;;;;47.42;37.80;;;29.00;84.80;;;;;;4214638;28;20036;-70
2022/04/10 03:42:59;;;;;;;49.97;37.47;;;29.00;84.40;;;;;;4217701;28;20043;-70
2022/04/10 03:45:07;;;;;;;41.92;36.47;;;29.10;84.20;;;;;;4216661;28;20059;-70
2022/04/10 03:47:13;;;;;;;45.08;35.95;;;29.10;84.00;;;;;;4216047;28;20046;-70
2022/04/10 03:49:20;;;;;;;51.05;37.72;;;29.10;83.50;;;;;;4216386;28;20154;-70
2022/04/10 03:51:26;;;;;;;47.47;38.28;;;29.20;82.90;;;;;;4216833;28;20052;-70
2022/04/10 03:53:30;;;;;;;45.97;36.08;;;29.20;82.50;;;;;;4217945;28;20048;-69
2022/04/10 03:55:40;;;;;;;46.97;36.50;;;29.20;83.30;;;;;;4198738;28;20167;-69
2022/04/10 03:57:45;;;;;;;44.38;35.78;;;29.30;83.50;;;;;;4216169;28;20102;-69
2022/04/10 03:59:50;;;;;;;45.47;35.75;;;29.30;83.10;;;;;;4212796;28;20044;-70
2022/04/10 04:01:57;;;;;;;41.97;33.65;;;29.40;82.80;;;;;;4215195;28;20040;-69
2022/04/10 04:04:02;;;;;;;44.47;33.88;;;29.50;82.40;;;;;;4217438;28;20051;-70
2022/04/10 04:06:07;;;;;;;46.85;34.05;;;29.50;81.60;;;;;;4215328;28;20074;-69
2022/04/10 04:08:16;;;;;;;42.60;34.40;;;29.50;81.20;;;;;;4216506;28;20139;-70
2022/04/10 04:10:22;;;;;;;42.25;33.10;;;29.60;81.50;;;;;;4214108;28;20082;-69
2022/04/10 04:12:27;;;;;;;44.83;34.95;;;29.60;81.20;;;;;;4215569;28;20051;-70
2022/04/10 04:14:36;;;;;;;48.65;35.75;;;29.70;80.60;;;;;;4217115;28;20044;-70
2022/04/10 04:16:42;;;;;;;58.17;41.47;;;29.80;80.20;;;;;;4213958;28;20062;-70
2022/04/10 04:18:48;;;;;;;64.32;47.25;;;29.80;79.60;;;;;;4213133;28;20112;-69
2022/04/10 04:20:55;;;;;;;65.60;46.63;;;29.90;80.00;;;;;;4215127;28;20068;-69
2022/04/10 04:23:09;;;;;;;58.03;43.53;;;29.90;79.30;;;;;;4231324;28;20040;-69
2022/04/10 04:25:14;;;;;;;53.38;39.05;;;30.00;79.50;;;;;;4215534;28;20051;-69
2022/04/10 04:27:24;;;;;;;53.60;39.08;;;30.00;79.20;;;;;;4214162;28;20127;-69
2022/04/10 04:29:30;;;;;;;48.05;35.80;;;30.10;79.60;;;;;;4213722;28;20039;-69
2022/04/10 04:31:35;;;;;;;38.95;33.35;;;30.10;79.10;;;;;;4214078;28;20080;-69
2022/04/10 04:33:44;;;;;;;41.80;33.70;;;30.20;78.10;;;;;;4178141;28;20049;-71
2022/04/10 04:35:50;;;;;;;40.40;34.05;;;30.20;78.10;;;;;;4215288;28;20040;-70
2022/04/10 04:37:55;;;;;;;41.20;32.58;;;30.20;77.50;;;;;;4214403;28;20050;-70
2022/04/10 04:40:08;;;;;;;38.45;32.03;;;30.30;76.70;;;;;;4215173;28;20123;-69
2022/04/10 04:42:12;;;;;;;39.55;32.33;;;30.30;76.70;;;;;;4214532;28;20087;-70
2022/04/10 04:44:17;;;;;;;45.95;34.22;;;30.40;77.00;;;;;;4214369;28;20052;-71
2022/04/10 04:46:26;;;;;;;43.15;33.55;;;30.40;77.30;;;;;;4213267;28;20074;-71
2022/04/10 04:48:31;;;;;;;39.75;32.67;;;30.50;76.90;;;;;;4214319;28;20056;-73
2022/04/10 04:50:35;;;;;;;39.97;31.42;;;30.50;76.70;;;;;;4214235;28;20044;-70
2022/04/10 04:52:45;;;;;;;37.33;31.85;;;30.60;76.50;;;;;;4213626;28;20610;-71
2022/04/10 04:54:53;;;;;;;36.63;31.45;;;30.60;75.60;;;;;;4216431;28;20108;-71
2022/04/10 04:56:58;;;;;;;39.83;31.23;;;30.60;76.20;;;;;;4216023;28;20164;-69
2022/04/10 04:59:15;;;;;;;38.13;31.67;;;30.70;74.90;;;;;;4187386;28;20514;-70
2022/04/10 05:01:20;;;;;;;37.47;31.13;;;30.70;74.90;;;;;;4214299;28;20052;-69
2022/04/10 05:03:25;;;;;;;37.78;30.60;;;30.70;74.70;;;;;;4213460;28;20044;-70
2022/04/10 05:05:45;;;;;;;37.58;30.75;;;30.80;74.00;;;;;;4218199;28;20040;-73
2022/04/10 05:07:57;;;;;;;33.42;28.90;;;30.80;72.90;;;;;;4219902;28;20067;-72
2022/04/10 05:10:20;;;;;;;36.17;28.75;;;30.80;73.60;;;;;;4218272;28;20048;-71
2022/04/10 05:12:42;;;;;;;36.53;29.58;;;30.80;73.60;;;;;;4203298;28;20048;-72
2022/04/10 05:15:16;;;;;;;34.28;29.10;;;30.80;73.40;;;;;;4205755;28;20039;-70
2022/04/10 05:17:29;;;;;;;33.83;30.15;;;30.90;72.90;;;;;;4220988;28;20160;-73
2022/04/10 05:19:51;;;;;;;43.65;31.05;;;30.90;73.60;;;;;;4212749;28;20124;-71
2022/04/10 05:22:10;;;;;;;36.58;29.58;;;31.00;73.10;;;;;;4167402;28;20050;-73
2022/04/10 05:24:21;;;;;;;34.67;30.27;;;31.00;72.10;;;;;;4200586;28;20056;-72
2022/04/10 05:26:45;;;;;;;36.92;28.67;;;31.10;72.40;;;;;;4215824;28;20048;-72
2022/04/10 05:29:27;;;;;;;35.88;29.05;;;31.10;72.40;;;;;;4219940;28;20048;-71
2022/04/10 05:31:35;;;;;;;39.33;30.25;;;31.20;72.70;;;;;;4219808;28;20075;-71
2022/04/10 05:33:55;;;;;;;39.08;31.13;;;31.20;72.50;;;;;;4221447;28;20103;-75
2022/04/10 05:36:11;;;;;;;34.28;29.63;;;31.20;72.80;;;;;;4204929;28;20052;-71
2022/04/10 05:38:45;;;;;;;40.72;28.45;;;31.30;72.70;;;;;;4205235;28;20048;-71
2022/04/10 05:41:04;;;;;;;37.10;29.60;;;31.40;72.60;;;;;;4207106;28;20040;-70
2022/04/10 05:43:31;;;;;;;35.22;29.33;;;31.50;72.10;;;;;;4220517;28;20070;-72
2022/04/10 05:45:57;;;;;;;35.53;29.38;;;31.50;71.70;;;;;;4219326;28;20063;-69
2022/04/10 05:48:13;;;;;;;40.55;29.55;;;31.50;72.00;;;;;;4220615;28;20048;-69
2022/04/10 05:50:27;;;;;;;38.17;30.05;;;31.50;71.70;;;;;;4219979;28;20051;-72
2022/04/10 05:52:52;;;;;;;37.97;30.75;;;31.60;71.60;;;;;;4220512;28;20048;-70
2022/04/10 05:55:17;;;;;;;35.05;29.48;;;31.60;70.80;;;;;;4189596;28;20650;-72
2022/04/10 05:57:52;;;;;;;39.05;31.08;;;31.60;70.90;;;;;;4221935;28;20043;-72
2022/04/10 06:00:16;;;;;;;36.65;28.75;;;31.60;70.80;;;;;;4223770;28;20039;-70
2022/04/10 06:03:07;;;;;;;39.85;30.60;;;31.70;71.40;;;;;;4219116;28;20078;-69
2022/04/10 06:05:31;;;;;;;33.70;29.88;;;31.80;71.20;;;;;;4222753;28;20048;-72
2022/04/10 06:08:20;;;;;;;39.67;31.58;;;31.80;71.20;;;;;;4161664;28;20060;-72
2022/04/10 06:10:46;;;;;;;34.97;31.17;;;31.90;70.90;;;;;;4219911;28;20069;-70
2022/04/10 06:13:25;;;;;;;39.30;32.08;;;31.90;71.40;;;;;;4218013;28;20554;-70
2022/04/10 06:16:39;;;;;;;42.47;34.17;;;31.90;71.60;;;;;;4173894;28;20058;-71
2022/04/10 06:18:44;;;;;;;42.70;32.42;;;31.90;72.00;;;;;;4211414;28;20064;-68
2022/04/10 06:21:02;;;;;;;42.03;32.40;;;32.00;72.40;;;;;;4200894;28;20131;-70
2022/04/10 06:23:23;;;;;;;41.38;32.72;;;32.00;72.20;;;;;;4202450;28;20047;-68
2022/04/10 06:25:34;;;;;;;43.55;33.45;;;32.00;71.90;;;;;;4216006;28;20040;-68
2022/04/10 06:27:41;;;;;;;39.45;32.95;;;32.10;72.00;;;;;;4212606;28;20113;-67
2022/04/10 06:29:47;;;;;;;44.60;34.78;;;32.10;71.70;;;;;;4213897;28;20036;-67
2022/04/10 06:31:56;;;;;;;45.47;33.75;;;32.10;72.50;;;;;;4213355;28;20596;-68
2022/04/10 06:34:07;;;;;;;38.10;32.78;;;32.20;72.60;;;;;;4216452;28;20042;-66
2022/04/10 06:36:14;;;;;;;41.78;33.60;;;32.20;72.80;;;;;;4215220;28;20489;-70
2022/04/10 06:38:22;;;;;;;36.70;32.05;;;32.20;73.00;;;;;;4213978;28;20372;-69
2022/04/10 06:40:37;;;;;;;40.33;31.90;;;32.20;72.70;;;;;;4213592;28;20048;-68
2022/04/10 06:42:42;;;;;;;38.08;31.15;;;32.20;72.70;;;;;;4216797;28;20036;-68
2022/04/10 06:45:06;;;;;;;36.47;31.30;;;32.30;72.80;;;;;;4215928;28;20098;-68
2022/04/10 06:47:33;;;;;;;40.45;31.88;;;32.30;72.30;;;;;;4216083;28;20064;-68
2022/04/10 06:49:42;;;;;;;41.22;30.92;;;32.40;72.30;;;;;;4211614;28;20044;-69
2022/04/10 06:51:50;;;;;;;35.22;30.90;;;32.40;71.30;;;;;;4216966;28;20471;-68
2022/04/10 06:54:07;;;;;;;37.65;30.42;;;32.30;70.90;;;;;;4215595;28;20048;-68
2022/04/10 06:56:12;;;;;;;38.80;30.48;;;32.30;70.80;;;;;;4218499;28;20056;-68
2022/04/10 06:58:22;;;;;;;36.83;30.35;;;32.30;71.00;;;;;;4218976;28;20471;-69
2022/04/10 07:00:32;;;;;;;37.33;31.42;;;32.40;71.10;;;;;;4219342;28;20066;-70
2022/04/10 07:02:38;;;;;;;39.58;31.40;;;32.30;71.20;;;;;;4219455;28;20050;-70
2022/04/10 07:04:46;;;;;;;35.67;29.77;;;32.30;71.70;;;;;;4170127;28;20058;-69
2022/04/10 07:06:54;;;;;;;40.70;31.23;;;32.40;71.50;;;;;;4219184;28;20467;-69
2022/04/10 07:08:59;;;;;;;41.00;30.48;;;32.40;71.50;;;;;;4202360;28;20049;-69
2022/04/10 07:11:07;;;;;;;37.47;30.00;;;32.40;71.70;;;;;;4213880;28;20036;-69
2022/04/10 07:13:19;;;;;;;36.75;29.42;;;32.40;71.70;;;;;;4200328;28;20036;-68
2022/04/10 07:15:24;;;;;;;34.55;29.77;;;32.50;71.60;;;;;;4183736;28;20147;-70
2022/04/10 07:17:36;;;;;;;37.53;30.48;;;32.50;71.90;;;;;;4198764;28;20044;-69
2022/04/10 07:19:52;;;;;;;40.22;30.00;;;32.50;71.80;;;;;;4207270;28;20067;-71
2022/04/10 07:24:58;;;;;;;38.65;31.42;;;32.50;71.90;;;;;;4182190;28;20040;-72
2022/04/10 07:27:03;;;;;;;36.03;30.75;;;32.40;72.50;;;;;;4182523;28;20072;-73
2022/04/10 07:29:16;;;;;;;37.13;31.42;;;32.50;72.70;;;;;;4201564;28;20048;-70
2022/04/10 07:31:28;;;;;;;38.55;32.20;;;32.50;72.50;;;;;;4169111;28;20158;-70
2022/04/10 07:33:34;;;;;;;41.75;31.60;;;32.50;72.70;;;;;;4198380;28;20179;-70
2022/04/10 07:35:48;;;;;;;44.47;34.78;;;32.50;72.40;;;;;;4201011;28;20048;-70
2022/04/10 07:38:03;;;;;;;39.47;32.83;;;32.50;73.20;;;;;;4202016;28;20582;-69
2022/04/10 07:40:08;;;;;;;41.03;32.88;;;32.50;73.30;;;;;;4185154;28;20045;-69
2022/04/10 07:42:15;;;;;;;41.38;32.53;;;32.40;73.30;;;;;;4185016;28;20767;-69
2022/04/10 07:44:59;;;;;;;36.20;30.83;;;32.50;72.90;;;;;;4207111;28;20089;-69
2022/04/10 07:47:26;;;;;;;37.53;31.63;;;32.50;72.80;;;;;;4217740;28;20099;-73
2022/04/10 07:49:32;;;;;;;39.83;32.08;;;32.50;73.00;;;;;;4207452;28;20569;-70
2022/04/10 07:51:41;;;;;;;38.63;30.75;;;32.50;72.90;;;;;;4203381;28;20048;-70
2022/04/10 07:54:02;;;;;;;40.45;32.63;;;32.50;72.70;;;;;;4219093;28;20083;-71
2022/04/10 07:56:12;;;;;;;41.53;32.33;;;32.50;72.80;;;;;;4219126;28;20070;-73
2022/04/10 07:58:21;;;;;;;40.47;31.63;;;32.50;72.40;;;;;;4219146;28;20046;-71
2022/04/10 08:01:00;;;;;;;35.72;30.10;;;32.50;72.60;;;;;;4200458;28;20052;-70
2022/04/10 08:03:11;;;;;;;37.58;31.27;;;32.50;72.40;;;;;;4200561;28;20052;-69
2022/04/10 08:05:37;;;;;;;39.38;31.70;;;32.50;72.00;;;;;;4201293;28;20123;-70
2022/04/10 08:08:03;;;;;;;39.13;31.83;;;32.50;72.20;;;;;;4173873;28;20056;-69
2022/04/10 08:10:08;;;;;;;38.40;31.92;;;32.50;72.30;;;;;;4201031;28;20119;-69
2022/04/10 08:12:14;;;;;;;37.45;30.90;;;32.50;72.80;;;;;;4184181;28;20087;-69
2022/04/10 08:14:20;;;;;;;37.05;32.63;;;32.40;72.50;;;;;;4200041;28;20558;-70
2022/04/10 08:16:25;;;;;;;39.22;32.38;;;32.50;72.50;;;;;;4199263;28;20041;-69
2022/04/10 08:18:36;;;;;;;35.72;31.65;;;32.40;72.30;;;;;;4193464;28;20499;-70
2022/04/10 08:20:46;;;;;;;44.65;39.10;;;32.50;72.30;;;;;;4200308;28;20048;-71
2022/04/10 08:23:10;;;;;;;54.60;47.53;;;32.40;72.20;;;;;;4173515;28;20049;-71
2022/04/10 08:25:33;;;;;;;64.25;54.50;;;32.40;72.20;;;;;;4209498;28;20513;-71
2022/04/10 08:27:38;;;;;;;61.33;51.40;;;32.40;72.50;;;;;;4218483;28;20089;-70
2022/04/10 08:29:43;;;;;;;46.30;39.75;;;32.40;72.80;;;;;;4219283;28;20071;-69
2022/04/10 08:31:49;;;;;;;46.58;36.05;;;32.40;73.20;;;;;;4219525;28;20056;-70
2022/04/10 08:33:57;;;;;;;39.20;34.33;;;32.40;72.60;;;;;;4218512;28;20036;-71
2022/04/10 08:36:05;;;;;;;44.63;34.08;;;32.30;72.00;;;;;;4217719;28;20109;-70
2022/04/10 08:38:10;;;;;;;36.65;32.53;;;32.30;70.90;;;;;;4215882;28;20040;-69
2022/04/10 08:40:15;;;;;;;38.65;33.22;;;32.30;71.20;;;;;;4213498;28;20066;-69
2022/04/10 08:42:42;;;;;;;43.15;32.35;;;32.30;71.60;;;;;;4164258;28;20054;-70
2022/04/10 08:44:48;;;;;;;45.38;32.67;;;32.30;71.70;;;;;;4148675;28;20069;-70
2022/04/10 08:46:53;;;;;;;41.42;32.55;;;32.20;72.20;;;;;;4166124;28;20048;-68
2022/04/10 08:49:00;;;;;;;37.30;32.80;;;32.30;72.00;;;;;;4173413;28;20052;-70
2022/04/10 08:51:07;;;;;;;50.65;43.00;;;32.20;71.50;;;;;;4165521;28;20049;-69
2022/04/10 08:53:11;;;;;;;51.38;42.85;;;32.20;71.20;;;;;;4164134;28;20045;-70
2022/04/10 08:55:19;;;;;;;54.22;39.78;;;32.20;71.70;;;;;;4166335;28;20057;-71
2022/04/10 08:57:26;;;;;;;40.75;36.10;;;32.20;72.10;;;;;;4165113;28;20132;-70
2022/04/10 08:59:31;;;;;;;42.85;34.40;;;32.20;72.70;;;;;;4166587;28;20056;-71
2022/04/10 09:01:37;;;;;;;39.50;33.67;;;32.20;73.10;;;;;;4165727;28;20084;-70
2022/04/10 09:03:46;;;;;;;42.47;33.80;;;32.20;73.30;;;;;;4165449;28;20107;-70
2022/04/10 09:06:02;;;;;;;44.80;33.50;;;32.20;72.10;;;;;;4164534;28;20616;-70
2022/04/10 09:08:12;;;;;;;39.80;33.47;;;32.20;73.40;;;;;;4165020;28;20088;-71
2022/04/10 09:10:18;;;;;;;44.03;33.60;;;32.10;72.20;;;;;;4178546;28;20045;-69
2022/04/10 09:12:24;;;;;;;40.55;34.50;;;32.10;71.80;;;;;;4181785;28;20423;-70
2022/04/10 09:14:40;;;;;;;43.50;35.38;;;32.10;71.80;;;;;;4180669;28;20037;-70
2022/04/10 09:17:02;;;;;;;41.88;34.00;;;32.10;71.70;;;;;;4178794;28;20041;-70
2022/04/10 09:22:19;;;;;;;38.30;34.13;;;32.10;71.80;;;;;;4233684;28;20067;-72
2022/04/10 09:24:58;;;;;;;43.35;34.35;;;32.10;71.40;;;;;;4214514;28;20039;-70
2022/04/10 09:27:31;;;;;;;37.85;32.50;;;32.10;71.90;;;;;;4214217;28;20048;-69
2022/04/10 09:29:54;;;;;;;38.03;33.67;;;32.00;71.70;;;;;;4166435;28;20053;-71
2022/04/10 09:32:13;;;;;;;41.08;32.42;;;32.00;71.70;;;;;;4213133;28;20791;-70
2022/04/10 09:34:41;;;;;;;40.90;33.53;;;32.00;72.10;;;;;;4214527;28;20150;-70
2022/04/10 09:37:21;;;;;;;41.03;33.78;;;32.00;72.10;;;;;;4214294;28;20066;-68
2022/04/10 09:40:01;;;;;;;38.45;33.17;;;32.00;72.60;;;;;;4212106;28;20135;-69
2022/04/10 09:42:17;;;;;;;39.92;33.80;;;31.90;72.80;;;;;;4191574;28;20680;-71
2022/04/10 09:44:56;;;;;;;40.03;33.25;;;31.90;73.10;;;;;;4214618;28;20051;-69
2022/04/10 09:47:12;;;;;;;45.30;34.00;;;31.90;73.30;;;;;;4214591;28;20054;-69
2022/04/10 09:49:53;;;;;;;;;;;;;;;;;;;;;
2022/04/10 09:52:21;;;;;;;44.15;36.13;;;31.80;73.60;;;;;;4216873;28;20040;-70
2022/04/10 09:54:51;;;;;;;44.65;36.28;;;31.80;74.00;;;;;;4167654;28;20077;-69
2022/04/10 09:57:11;;;;;;;43.88;35.75;;;31.90;73.70;;;;;;4219046;28;20066;-71
2022/04/10 09:59:48;;;;;;;47.72;36.15;;;31.80;74.00;;;;;;4182265;28;20080;-72
2022/04/10 10:02:37;;;;;;;46.92;35.40;;;31.80;74.00;;;;;;4195595;28;20036;-71
2022/04/10 10:04:56;;;;;;;42.08;36.40;;;31.80;73.70;;;;;;4201734;28;20559;-71
2022/04/10 10:07:23;;;;;;;44.92;37.00;;;31.80;73.70;;;;;;4205983;28;20048;-73
2022/04/10 10:09:40;;;;;;;49.33;39.00;;;31.70;73.90;;;;;;4218102;28;20151;-70
2022/04/10 10:12:15;;;;;;;51.22;41.30;;;31.70;73.90;;;;;;4215308;28;20074;-71
2022/04/10 10:14:34;;;;;;;50.13;38.85;;;31.70;73.40;;;;;;4203728;28;20036;-71
2022/04/10 10:17:07;;;;;;;46.03;39.08;;;31.60;73.10;;;;;;4217268;28;20036;-70
2022/04/10 10:19:29;;;;;;;46.17;38.25;;;31.70;72.90;;;;;;4194344;28;20561;-70
2022/04/10 10:21:52;;;;;;;54.17;38.65;;;31.60;73.00;;;;;;4218495;28;20121;-70
2022/04/10 10:23:57;;;;;;;42.90;37.05;;;31.60;73.30;;;;;;4213989;28;20044;-69
2022/04/10 10:26:10;;;;;;;40.20;35.70;;;31.60;73.70;;;;;;4211579;28;20052;-71
2022/04/10 10:28:43;;;;;;;48.78;35.83;;;31.50;74.60;;;;;;4210137;28;20113;-69
2022/04/10 10:31:23;;;;;;;42.90;36.88;;;31.50;74.70;;;;;;4179629;28;20049;-71
2022/04/10 10:33:30;;;;;;;48.10;38.95;;;31.50;74.70;;;;;;4180435;28;20052;-69
2022/04/10 10:35:39;;;;;;;48.28;38.47;;;31.50;74.80;;;;;;4148277;28;20045;-70
2022/04/10 10:37:50;;;;;;;44.88;38.33;;;31.50;75.30;;;;;;4180895;28;20044;-68
2022/04/10 10:39:56;;;;;;;54.20;40.40;;;31.40;75.70;;;;;;4117549;28;20058;-69
2022/04/10 10:42:12;;;;;;;48.97;40.22;;;31.40;76.10;;;;;;4164307;28;20041;-69
2022/04/10 10:44:40;;;;;;;53.28;40.58;;;31.40;76.00;;;;;;4177629;28;20192;-70
2022/04/10 10:47:14;;;;;;;51.05;38.13;;;31.40;76.20;;;;;;4158310;28;20164;-71
2022/04/10 10:49:20;;;;;;;48.63;36.90;;;31.30;76.50;;;;;;4178399;28;20045;-72
2022/04/10 10:51:48;;;;;;;54.70;38.90;;;31.30;76.40;;;;;;4179060;28;20454;-71
2022/04/10 10:53:58;;;;;;;48.40;38.50;;;31.30;76.90;;;;;;4180251;28;20037;-72
2022/04/10 10:56:05;;;;;;;50.72;37.85;;;31.20;76.90;;;;;;4201828;28;20113;-70
2022/04/10 10:58:31;;;;;;;47.85;38.28;;;31.20;77.90;;;;;;4214740;28;20044;-69
2022/04/10 11:00:38;;;;;;;54.20;39.97;;;31.20;78.60;;;;;;4218968;28;20492;-68
2022/04/10 11:02:54;;;;;;;50.05;38.05;;;31.20;78.30;;;;;;4219245;28;20040;-70
2022/04/10 11:05:04;;;;;;;52.75;39.22;;;31.10;79.30;;;;;;4216015;28;20040;-70
2022/04/10 11:07:24;;;;;;;61.88;39.88;;;31.10;79.70;;;;;;4218486;28;20044;-70
2022/04/10 11:09:32;;;;;;;53.90;39.80;;;31.00;80.10;;;;;;4219331;28;20040;-69
2022/04/10 11:11:39;;;;;;;52.00;41.20;;;31.00;80.40;;;;;;4216535;28;20078;-71
2022/04/10 11:14:28;;;;;;;64.90;46.95;;;31.00;80.60;;;;;;4214299;28;20652;-72
2022/04/10 11:16:40;;;;;;;75.18;50.17;;;31.00;80.90;;;;;;4202905;28;20055;-71
2022/04/10 11:18:52;;;;;;;66.25;49.17;;;30.90;81.00;;;;;;4173186;28;20052;-69